Hillje, Texas
Current Conditions -  °F | °C
As of 1:15 AM on Wednesday 22 Oct 2014 (Local Time) from KARM Reporting Station
Clear Clear  
Wind Chill: 60°   Ceiling: Unl
Heat Index: 60°   Visibility: 10mi
Dew Point: 55°   Wind: 3mph
Humidity: 83%   Direction: 20°NNE
Pressure: 30.03"   Gusts: NA
Location:  29.1916°N, 96.2212°W
Report Text: KARM 220615Z AUTO 02003KT 10SM CLR 15/13 A3003 RMK AO2 T01540126
Loading
Personal Weather Stations






























Interactive Weather Map
Tropical Storm Tracking
New forecast layout! Learn more

10-Day Weather Forecast

Advertisements
Track Severe Weather on mobile